createdAt,value
2022-09-05T00:02:03.282Z,22.51
2022-09-05T00:05:15.130Z,22.53
2022-09-05T00:08:42.964Z,22.53
2022-09-05T00:11:46.617Z,22.54
2022-09-05T00:14:34.302Z,22.55
2022-09-05T00:19:16.172Z,22.52
2022-09-05T00:24:29.713Z,22.46
2022-09-05T00:24:37.158Z,22.48
2022-09-05T00:27:28.929Z,22.37
2022-09-05T00:31:07.767Z,22.41
2022-09-05T00:33:21.635Z,22.43
2022-09-05T00:36:19.653Z,22.43
2022-09-05T00:39:06.681Z,22.36
2022-09-05T00:41:37.006Z,22.32
2022-09-05T00:44:06.490Z,22.28
2022-09-05T00:46:43.195Z,22.30
2022-09-05T00:49:30.943Z,22.31
2022-09-05T00:52:34.472Z,22.23
2022-09-05T00:55:20.786Z,22.22
2022-09-05T00:58:36.798Z,22.17
2022-09-05T01:01:26.760Z,22.23
2022-09-05T01:04:27.998Z,22.25
2022-09-05T01:07:14.317Z,22.20
2022-09-05T01:10:32.149Z,22.24
2022-09-05T01:13:12.763Z,22.25
2022-09-05T01:16:13.705Z,22.26
2022-09-05T01:18:57.296Z,22.15
2022-09-05T01:22:09.431Z,22.25
2022-09-05T01:25:17.989Z,22.27
2022-09-05T01:29:15.151Z,22.29
2022-09-05T01:31:18.892Z,22.31
2022-09-05T01:33:58.375Z,22.34
2022-09-05T01:37:06.002Z,22.34
2022-09-05T01:40:16.456Z,22.34
2022-09-05T01:43:26.296Z,22.32
2022-09-05T01:46:19.638Z,22.30
2022-09-05T01:49:12.286Z,22.32
2022-09-05T01:52:11.464Z,22.35
2022-09-05T01:55:19.721Z,22.34
2022-09-05T01:58:13.473Z,22.34
2022-09-05T02:01:25.357Z,22.37
2022-09-05T02:04:34.678Z,22.38
2022-09-05T02:07:31.734Z,22.43
2022-09-05T02:10:33.352Z,22.38
2022-09-05T02:13:26.665Z,22.36
2022-09-05T02:16:48.750Z,22.28
2022-09-05T02:19:25.724Z,22.35
2022-09-05T02:22:23.249Z,22.35
2022-09-05T02:28:04.615Z,22.38
2022-09-05T02:30:48.537Z,22.41
2022-09-05T02:34:01.737Z,22.46
2022-09-05T02:36:46.998Z,22.52
2022-09-05T02:45:14.076Z,22.35
2022-09-05T02:45:21.004Z,22.45
2022-09-05T02:46:20.328Z,22.34
2022-09-05T02:50:26.865Z,22.27
2022-09-05T02:57:29.377Z,22.19
2022-09-05T02:57:32.672Z,22.09
2022-09-05T02:58:53.381Z,22.04
2022-09-05T03:01:52.554Z,21.70
2022-09-05T03:04:44.126Z,21.77
2022-09-05T03:07:48.332Z,21.81
2022-09-05T03:10:53.345Z,21.80
2022-09-05T03:13:53.844Z,21.76
2022-09-05T03:16:25.542Z,21.69
2022-09-05T03:19:20.883Z,21.64
2022-09-05T03:22:37.132Z,21.52
2022-09-05T03:25:35.233Z,21.48
2022-09-05T03:28:36.340Z,21.48
2022-09-05T03:31:29.413Z,21.46
2022-09-05T03:34:37.749Z,21.38
2022-09-05T03:37:46.567Z,21.37
2022-09-05T03:40:26.360Z,21.41
2022-09-05T03:43:50.018Z,21.36
2022-09-05T03:46:50.911Z,21.38
2022-09-05T03:52:42.875Z,21.40
2022-09-05T03:57:13.121Z,21.36
2022-09-05T03:57:17.338Z,21.34
2022-09-05T03:59:09.769Z,21.38
2022-09-05T04:03:58.919Z,21.44
2022-09-05T04:08:19.032Z,21.36
2022-09-05T04:08:20.564Z,21.44
2022-09-05T04:10:39.837Z,21.37
2022-09-05T04:13:33.912Z,21.34
2022-09-05T04:16:47.080Z,21.35
2022-09-05T04:19:33.946Z,21.31
2022-09-05T04:22:59.431Z,21.23
2022-09-05T04:26:02.931Z,21.25
2022-09-05T04:29:03.348Z,21.25
2022-09-05T04:32:19.095Z,21.22
2022-09-05T04:35:13.407Z,21.14
2022-09-05T04:38:05.583Z,21.16
2022-09-05T04:40:55.867Z,21.13
2022-09-05T04:43:48.157Z,21.13
2022-09-05T04:46:48.476Z,21.09
2022-09-05T04:49:44.302Z,21.12
2022-09-05T04:52:32.560Z,21.16
2022-09-05T04:55:21.397Z,21.19
2022-09-05T04:58:07.202Z,21.21
2022-09-05T05:06:02.138Z,21.22
2022-09-05T05:06:22.511Z,21.15
2022-09-05T05:06:45.376Z,21.23
2022-09-05T05:10:43.974Z,21.22
2022-09-05T05:18:02.535Z,21.26
2022-09-05T05:18:11.152Z,21.30
2022-09-05T05:19:26.384Z,21.32
2022-09-05T05:22:00.334Z,21.33
2022-09-05T05:24:36.556Z,21.34
2022-09-05T05:27:25.909Z,21.40
2022-09-05T05:30:10.439Z,21.47
2022-09-05T05:32:49.354Z,21.48
2022-09-05T05:35:47.958Z,21.51
2022-09-05T05:38:37.611Z,21.52
2022-09-05T05:41:30.835Z,21.54
2022-09-05T05:43:59.394Z,21.52
2022-09-05T05:46:36.435Z,21.58
2022-09-05T05:49:23.560Z,21.62
2022-09-05T05:52:02.358Z,21.67
2022-09-05T05:55:36.284Z,21.66
2022-09-05T05:58:08.166Z,21.66
2022-09-05T06:01:00.736Z,21.68
2022-09-05T06:03:56.595Z,21.70
2022-09-05T06:07:04.254Z,21.64
2022-09-05T06:14:53.255Z,21.66
2022-09-05T06:15:00.310Z,21.75
2022-09-05T06:17:04.176Z,21.85
2022-09-05T06:22:05.042Z,21.96
2022-09-05T06:24:01.918Z,22.14
2022-09-05T06:27:08.125Z,22.33
2022-09-05T06:30:20.392Z,22.52
2022-09-05T06:33:13.283Z,22.66
2022-09-05T06:36:09.726Z,22.84
2022-09-05T06:39:16.339Z,22.98
2022-09-05T06:42:11.035Z,23.12
2022-09-05T06:45:58.729Z,23.25
2022-09-05T06:48:46.475Z,23.37
2022-09-05T06:52:36.796Z,23.49
2022-09-05T06:55:50.871Z,23.39
2022-09-05T06:58:54.165Z,23.67
2022-09-05T07:01:39.989Z,23.76
2022-09-05T07:05:23.347Z,23.91
2022-09-05T07:07:49.846Z,24.00
2022-09-05T07:10:39.682Z,24.12
2022-09-05T07:13:38.842Z,24.24
2022-09-05T07:16:18.095Z,24.29
2022-09-05T07:19:33.278Z,24.32
2022-09-05T07:22:47.326Z,24.42
2022-09-05T07:25:22.004Z,24.45
2022-09-05T07:28:29.451Z,24.47
2022-09-05T07:31:10.539Z,24.47
2022-09-05T07:33:40.975Z,24.44
2022-09-05T07:36:33.905Z,24.49
2022-09-05T07:39:27.781Z,24.42
2022-09-05T07:41:57.717Z,24.45
2022-09-05T07:44:56.519Z,24.46
2022-09-05T07:47:41.808Z,24.42
2022-09-05T07:53:31.167Z,24.39
2022-09-05T07:56:49.589Z,24.40
2022-09-05T07:56:51.465Z,24.31
2022-09-05T07:58:52.835Z,24.42
2022-09-05T08:01:23.037Z,24.43
2022-09-05T08:04:00.420Z,24.44
2022-09-05T08:07:11.938Z,24.45
2022-09-05T08:10:08.008Z,24.51
2022-09-05T08:13:24.400Z,24.55
2022-09-05T08:16:09.879Z,24.56
2022-09-05T08:19:09.763Z,24.63
2022-09-05T08:21:47.268Z,24.62
2022-09-05T08:24:53.801Z,24.72
2022-09-05T08:27:50.335Z,24.77
2022-09-05T08:30:26.390Z,24.81
2022-09-05T08:33:12.828Z,24.94
2022-09-05T08:35:57.778Z,25.05
2022-09-05T08:38:40.574Z,25.14
2022-09-05T08:41:44.729Z,25.28
2022-09-05T08:46:41.610Z,25.29
2022-09-05T08:48:03.290Z,25.39
2022-09-05T08:51:28.350Z,25.47
2022-09-05T08:55:04.255Z,25.51
2022-09-05T08:58:09.210Z,25.56
2022-09-05T09:01:06.440Z,25.58
2022-09-05T09:04:15.219Z,25.52
2022-09-05T09:07:51.686Z,25.64
2022-09-05T09:10:40.727Z,25.64
2022-09-05T09:13:52.618Z,25.69
2022-09-05T09:17:00.261Z,25.69
2022-09-05T09:20:16.016Z,25.71
2022-09-05T09:23:03.908Z,25.65
2022-09-05T09:26:04.510Z,25.75
2022-09-05T09:28:51.419Z,25.83
2022-09-05T09:31:29.153Z,25.91
2022-09-05T09:34:36.700Z,25.99
2022-09-05T09:37:48.261Z,26.02
2022-09-05T09:41:02.763Z,26.08
2022-09-05T09:44:08.849Z,26.14
2022-09-05T09:46:45.906Z,26.21
2022-09-05T09:49:25.672Z,26.27
2022-09-05T09:52:30.486Z,26.33
2022-09-05T09:55:17.305Z,26.43
2022-09-05T09:58:30.637Z,26.49
2022-09-05T10:01:35.937Z,26.62
2022-09-05T10:07:53.175Z,26.72
2022-09-05T10:10:50.234Z,26.80
2022-09-05T10:11:41.366Z,26.91
2022-09-05T10:14:47.809Z,26.98
2022-09-05T10:17:29.619Z,27.09
2022-09-05T10:20:36.128Z,27.17
2022-09-05T10:23:44.869Z,27.23
2022-09-05T10:27:03.894Z,27.34
2022-09-05T10:30:08.947Z,27.42
2022-09-05T10:35:08.910Z,27.50
2022-09-05T10:36:22.598Z,27.58
2022-09-05T10:39:25.848Z,27.68
2022-09-05T10:42:35.757Z,27.75
2022-09-05T10:45:31.356Z,27.83
2022-09-05T10:48:36.447Z,27.94
2022-09-05T10:51:27.744Z,27.98
2022-09-05T10:54:14.626Z,28.06
2022-09-05T10:57:04.657Z,28.12
2022-09-05T11:02:20.362Z,28.24
2022-09-05T11:02:48.221Z,28.29
2022-09-05T11:05:27.636Z,28.37
2022-09-05T11:08:13.632Z,28.44
2022-09-05T11:11:34.005Z,28.48
2022-09-05T11:14:31.122Z,28.50
2022-09-05T11:17:24.461Z,28.60
2022-09-05T11:20:37.242Z,28.66
2022-09-05T11:23:40.652Z,28.72
2022-09-05T11:26:35.286Z,28.76
2022-09-05T11:29:18.270Z,28.83
2022-09-05T11:36:14.682Z,28.87
2022-09-05T11:39:47.375Z,28.94
2022-09-05T11:40:04.230Z,29.00
2022-09-05T11:41:27.638Z,28.75
2022-09-05T11:44:50.421Z,29.09
2022-09-05T11:47:44.384Z,29.19
2022-09-05T11:50:43.307Z,29.27
2022-09-05T11:54:03.411Z,29.34
2022-09-05T11:57:32.366Z,29.39
2022-09-05T12:00:33.000Z,29.50
2022-09-05T12:03:57.602Z,29.58
2022-09-05T12:06:33.855Z,29.36
2022-09-05T12:09:42.371Z,29.58
2022-09-05T12:12:59.863Z,29.71
2022-09-05T12:15:34.642Z,29.73
2022-09-05T12:18:37.796Z,29.88
2022-09-05T12:21:42.804Z,29.88
2022-09-05T12:25:26.138Z,29.96
2022-09-05T12:28:28.652Z,29.99
2022-09-05T12:32:31.021Z,30.07
2022-09-05T12:36:08.506Z,30.14
2022-09-05T12:40:53.734Z,30.15
2022-09-05T12:41:46.169Z,30.22
2022-09-05T12:44:55.853Z,30.29
2022-09-05T12:47:30.322Z,30.36
2022-09-05T12:50:14.224Z,30.41
2022-09-05T12:52:51.031Z,30.46
2022-09-05T12:56:38.674Z,30.50
2022-09-05T13:03:09.580Z,30.51
2022-09-05T13:03:14.184Z,30.53
2022-09-05T13:04:44.067Z,30.62
2022-09-05T13:07:43.000Z,30.71
2022-09-05T13:14:11.610Z,30.69
2022-09-05T13:15:08.043Z,30.72
2022-09-05T13:16:54.423Z,30.75
2022-09-05T13:19:29.460Z,30.77
2022-09-05T13:22:01.228Z,30.82
2022-09-05T13:24:37.517Z,30.87
2022-09-05T13:27:26.467Z,30.93
2022-09-05T13:33:01.889Z,30.95
2022-09-05T13:38:01.632Z,30.99
2022-09-05T13:38:10.674Z,30.97
2022-09-05T13:39:12.606Z,31.06
2022-09-05T13:41:50.071Z,31.05
2022-09-05T13:44:27.442Z,31.07
2022-09-05T13:47:29.699Z,31.15
2022-09-05T13:50:20.345Z,31.16
2022-09-05T13:53:21.555Z,31.18
2022-09-05T13:56:03.079Z,31.00
2022-09-05T13:58:57.266Z,31.17
2022-09-05T14:02:29.183Z,31.23
2022-09-05T14:05:20.855Z,31.26
2022-09-05T14:08:20.099Z,31.26
2022-09-05T14:11:55.507Z,31.30
2022-09-05T14:20:28.096Z,31.44
2022-09-05T14:23:15.868Z,31.47
2022-09-05T14:25:57.856Z,31.47
2022-09-05T14:28:46.568Z,31.47
2022-09-05T14:36:10.938Z,31.51
2022-09-05T14:37:51.224Z,31.50
2022-09-05T14:38:16.101Z,31.61
2022-09-05T14:41:43.212Z,31.63
2022-09-05T14:44:57.142Z,31.65
2022-09-05T14:47:47.569Z,31.72
2022-09-05T14:51:04.753Z,31.71
2022-09-05T14:59:12.343Z,31.73
2022-09-05T15:02:45.352Z,31.70
2022-09-05T15:03:04.982Z,31.70
2022-09-05T15:05:40.946Z,31.70
2022-09-05T15:10:02.354Z,31.78
2022-09-05T15:12:20.729Z,31.78
2022-09-05T15:14:08.044Z,31.80
2022-09-05T15:16:43.510Z,31.78
2022-09-05T15:19:14.143Z,31.84
2022-09-05T15:21:42.142Z,31.84
2022-09-05T15:24:23.016Z,31.91
2022-09-05T15:26:59.525Z,31.89
2022-09-05T15:29:36.874Z,31.94
2022-09-05T15:32:21.653Z,31.95
2022-09-05T15:34:56.569Z,31.90
2022-09-05T15:37:36.119Z,31.92
2022-09-05T15:40:22.629Z,31.89
2022-09-05T15:43:00.622Z,31.94
2022-09-05T15:45:38.037Z,31.96
2022-09-05T15:48:12.519Z,31.96
2022-09-05T15:50:59.118Z,31.94
2022-09-05T15:53:36.792Z,31.98
2022-09-05T15:56:10.953Z,31.98
2022-09-05T15:58:56.481Z,31.96
2022-09-05T16:01:58.583Z,31.95
2022-09-05T16:10:31.214Z,31.88
2022-09-05T16:10:33.564Z,31.91
2022-09-05T16:10:57.882Z,31.94
2022-09-05T16:13:17.661Z,31.63
2022-09-05T16:21:51.315Z,31.78
2022-09-05T16:23:30.678Z,31.75
2022-09-05T16:23:34.074Z,31.78
2022-09-05T16:24:59.949Z,31.80
2022-09-05T16:27:44.701Z,31.72
2022-09-05T16:30:26.805Z,31.67
2022-09-05T16:33:18.492Z,31.57
2022-09-05T16:36:17.300Z,31.50
2022-09-05T16:39:09.024Z,31.41
2022-09-05T16:41:51.359Z,31.33
2022-09-05T16:44:54.127Z,31.21
2022-09-05T16:47:36.506Z,31.06
2022-09-05T16:50:34.852Z,30.98
2022-09-05T16:53:02.769Z,30.86
2022-09-05T16:55:58.114Z,30.75
2022-09-05T16:58:32.854Z,30.69
2022-09-05T17:01:23.654Z,30.59
2022-09-05T17:04:17.685Z,30.49
2022-09-05T17:07:23.099Z,30.36
2022-09-05T17:09:51.247Z,30.28
2022-09-05T17:12:28.600Z,30.27
2022-09-05T17:15:03.548Z,30.23
2022-09-05T17:18:22.650Z,30.16
2022-09-05T17:20:59.395Z,30.07
2022-09-05T17:27:39.748Z,30.08
2022-09-05T17:29:33.947Z,30.08
2022-09-05T17:32:31.620Z,30.03
2022-09-05T17:35:16.810Z,29.99
2022-09-05T17:38:11.560Z,29.92
2022-09-05T17:41:04.201Z,29.93
2022-09-05T17:43:39.571Z,29.85
2022-09-05T17:46:26.216Z,29.78
2022-09-05T17:49:19.103Z,29.62
2022-09-05T17:51:54.356Z,29.64
2022-09-05T17:54:33.623Z,29.61
2022-09-05T17:57:33.532Z,29.53
2022-09-05T18:00:31.801Z,29.49
2022-09-05T18:03:00.150Z,29.37
2022-09-05T18:06:01.117Z,29.39
2022-09-05T18:08:50.005Z,29.33
2022-09-05T18:11:44.914Z,29.24
2022-09-05T18:20:27.786Z,29.03
2022-09-05T18:23:19.324Z,28.88
2022-09-05T18:25:58.022Z,28.82
2022-09-05T18:28:53.726Z,28.70
2022-09-05T18:31:45.162Z,28.53
2022-09-05T18:34:13.689Z,28.38
2022-09-05T18:36:52.987Z,28.28
2022-09-05T18:39:24.264Z,28.20
2022-09-05T18:42:25.857Z,28.14
2022-09-05T18:45:15.091Z,28.02
2022-09-05T18:47:59.198Z,27.93
2022-09-05T18:50:40.424Z,27.82
2022-09-05T18:53:13.401Z,27.68
2022-09-05T18:56:13.086Z,27.64
2022-09-05T18:59:09.705Z,27.47
2022-09-05T19:02:04.543Z,27.45
2022-09-05T19:04:49.564Z,27.44
2022-09-05T19:07:33.662Z,27.44
2022-09-05T19:10:34.820Z,27.44
2022-09-05T19:13:31.782Z,27.32
2022-09-05T19:16:43.909Z,27.24
2022-09-05T19:19:10.383Z,27.11
2022-09-05T19:22:36.020Z,27.04
2022-09-05T19:24:48.547Z,26.97
2022-09-05T19:29:27.925Z,26.89
2022-09-05T19:37:04.607Z,26.78
2022-09-05T19:37:06.732Z,26.81
2022-09-05T19:37:15.103Z,26.81
2022-09-05T19:41:36.800Z,26.81
2022-09-05T19:47:31.255Z,26.81
2022-09-05T19:47:39.629Z,26.80
2022-09-05T19:50:30.969Z,26.66
2022-09-05T19:53:07.773Z,26.65
2022-09-05T19:55:38.572Z,26.60
2022-09-05T19:58:20.943Z,26.55
2022-09-05T20:01:08.403Z,26.51
2022-09-05T20:03:48.430Z,26.49
2022-09-05T20:06:30.957Z,26.42
2022-09-05T20:09:22.493Z,26.38
2022-09-05T20:11:58.674Z,26.03
2022-09-05T20:14:35.725Z,26.10
2022-09-05T20:17:28.803Z,26.11
2022-09-05T20:20:12.369Z,26.06
2022-09-05T20:22:50.554Z,26.03
2022-09-05T20:25:41.457Z,26.09
2022-09-05T20:28:22.578Z,26.03
2022-09-05T20:31:27.163Z,25.92
2022-09-05T20:34:00.831Z,25.83
2022-09-05T20:43:15.474Z,25.85
2022-09-05T20:43:18.808Z,25.92
2022-09-05T20:43:32.030Z,25.80
2022-09-05T20:46:30.642Z,25.81
2022-09-05T20:54:05.272Z,25.73
2022-09-05T20:54:15.415Z,25.78
2022-09-05T20:54:34.668Z,25.68
2022-09-05T20:57:34.084Z,25.65
2022-09-05T21:00:20.498Z,25.58
2022-09-05T21:02:58.679Z,25.55
2022-09-05T21:05:34.543Z,25.53
2022-09-05T21:08:36.597Z,25.44
2022-09-05T21:11:06.695Z,25.12
2022-09-05T21:13:52.356Z,25.24
2022-09-05T21:16:27.701Z,25.23
2022-09-05T21:18:55.915Z,25.18
2022-09-05T21:21:30.270Z,25.18
2022-09-05T21:24:17.601Z,25.17
2022-09-05T21:26:48.724Z,25.13
2022-09-05T21:29:32.320Z,25.09
2022-09-05T21:32:10.515Z,25.06
2022-09-05T21:34:49.674Z,25.04
2022-09-05T21:37:19.722Z,24.95
2022-09-05T21:39:59.869Z,24.98
2022-09-05T21:42:49.718Z,24.94
2022-09-05T21:47:35.736Z,24.84
2022-09-05T21:48:28.442Z,24.83
2022-09-05T21:51:02.725Z,24.79
2022-09-05T21:59:14.322Z,24.71
2022-09-05T21:59:25.236Z,24.69
2022-09-05T21:59:50.029Z,24.64
2022-09-05T22:02:18.645Z,24.62
2022-09-05T22:04:47.653Z,24.59
2022-09-05T22:07:26.367Z,24.57
2022-09-05T22:10:04.534Z,24.57
2022-09-05T22:12:39.326Z,24.29
2022-09-05T22:15:26.783Z,24.47
2022-09-05T22:18:16.668Z,24.49
2022-09-05T22:21:33.534Z,24.51
2022-09-05T22:23:44.443Z,24.44
2022-09-05T22:26:14.303Z,24.44
2022-09-05T22:28:48.911Z,24.49
2022-09-05T22:31:20.799Z,24.49
2022-09-05T22:33:51.164Z,24.44
2022-09-05T22:36:19.862Z,24.38
2022-09-05T22:38:48.378Z,24.36
2022-09-05T22:41:17.223Z,24.34
2022-09-05T22:43:46.802Z,24.32
2022-09-05T22:46:15.130Z,24.31
2022-09-05T22:48:43.330Z,24.28
2022-09-05T22:51:11.488Z,24.25
2022-09-05T22:53:39.581Z,24.22
2022-09-05T22:56:11.104Z,24.21
2022-09-05T22:58:45.239Z,24.23
2022-09-05T23:01:13.332Z,24.22
2022-09-05T23:03:41.334Z,24.17
2022-09-05T23:06:10.430Z,24.20
2022-09-05T23:08:38.444Z,24.15
2022-09-05T23:11:09.696Z,24.21
2022-09-05T23:13:38.389Z,24.13
2022-09-05T23:16:07.144Z,24.16
2022-09-05T23:18:35.348Z,24.19
2022-09-05T23:21:14.992Z,24.16
2022-09-05T23:23:43.183Z,24.08
2022-09-05T23:26:13.549Z,24.02
2022-09-05T23:28:43.731Z,23.99
2022-09-05T23:31:12.822Z,23.85
2022-09-05T23:33:42.296Z,23.86
2022-09-05T23:36:15.870Z,23.82
2022-09-05T23:38:44.500Z,23.78
2022-09-05T23:41:15.435Z,23.81
2022-09-05T23:43:43.729Z,23.79
2022-09-05T23:46:12.015Z,23.84
2022-09-05T23:48:40.420Z,23.82
2022-09-05T23:51:11.682Z,23.79
2022-09-05T23:53:40.868Z,23.68
2022-09-05T23:56:11.214Z,23.65
2022-09-05T23:58:39.809Z,23.59
